Time;durP1;ratioP1;P1;durP2;ratioP2;P2;SDS_P1;SDS_P2;PMS_P1;PMS_P2;Temp;Humidity;BMP_temperature;BMP_pressure;BME280_temperature;BME280_humidity;BME280_pressure;Samples;Min_cycle;Max_cycle;Signal;HPM_P1;HPM_P2
2023/05/21 00:00:26;;;;;;;0.40;0.40;;;;;;;17.57;100.00;99189.56;5051955;28;20196;-62
2023/05/21 00:02:53;;;;;;;0.50;0.50;;;;;;;17.52;100.00;99190.72;5052586;28;20223;-62
2023/05/21 00:05:20;;;;;;;0.80;0.80;;;;;;;17.54;100.00;99184.56;5052788;28;20196;-63
2023/05/21 00:07:47;;;;;;;0.60;0.60;;;;;;;17.54;100.00;99183.72;5052290;28;20200;-63
2023/05/21 00:10:14;;;;;;;0.50;0.50;;;;;;;17.29;100.00;99142.91;5052404;28;20200;-62
2023/05/21 00:12:42;;;;;;;0.40;0.40;;;;;;;17.51;100.00;99171.75;5052491;28;20247;-62
2023/05/21 00:15:09;;;;;;;0.47;0.47;;;;;;;17.40;100.00;99156.06;5052269;28;20283;-62
2023/05/21 00:17:36;;;;;;;0.40;0.40;;;;;;;17.51;100.00;99174.34;5052150;28;20580;-63
2023/05/21 00:20:05;;;;;;;0.53;0.53;;;;;;;17.49;100.00;99165.84;5052285;28;20648;-62
2023/05/21 00:22:35;;;;;;;0.60;0.60;;;;;;;17.42;100.00;99159.38;5052308;28;20258;-62
2023/05/21 00:25:01;;;;;;;0.50;0.50;;;;;;;17.44;100.00;99157.53;5052692;28;20284;-62
2023/05/21 00:27:28;;;;;;;0.60;0.60;;;;;;;17.40;100.00;99156.06;5051503;28;20220;-63
2023/05/21 00:29:56;;;;;;;0.77;0.77;;;;;;;17.25;100.00;99150.03;5051749;28;20212;-62
2023/05/21 00:32:23;;;;;;;0.40;0.40;;;;;;;17.10;100.00;99144.97;5050910;28;20668;-63
2023/05/21 00:34:50;;;;;;;0.70;0.70;;;;;;;16.95;100.00;99149.31;5051439;28;20719;-62
2023/05/21 00:37:17;;;;;;;0.47;0.47;;;;;;;16.91;100.00;99145.25;5051518;28;20306;-63
2023/05/21 00:39:43;;;;;;;0.47;0.47;;;;;;;16.89;100.00;99143.69;5051737;28;20263;-62
2023/05/21 00:42:11;;;;;;;0.53;0.53;;;;;;;16.91;100.00;99141.81;5051903;28;20200;-62
2023/05/21 00:44:38;;;;;;;0.60;0.60;;;;;;;16.95;100.00;99140.72;5052031;28;20652;-62
2023/05/21 00:47:06;;;;;;;0.63;0.63;;;;;;;16.93;100.00;99137.41;5051883;28;20207;-62
2023/05/21 00:49:33;;;;;;;0.40;0.40;;;;;;;17.05;100.00;99144.41;5050652;28;20200;-62
2023/05/21 00:52:01;;;;;;;0.53;0.53;;;;;;;17.08;100.00;99149.41;5051699;28;20205;-62
2023/05/21 00:54:30;;;;;;;0.50;0.50;;;;;;;17.11;100.00;99154.41;5051526;28;20251;-62
2023/05/21 00:56:57;;;;;;;0.60;0.60;;;;;;;17.18;100.00;99155.72;5051605;28;20627;-63
2023/05/21 00:59:25;;;;;;;0.50;0.50;;;;;;;17.19;100.00;99157.34;5051546;28;20269;-62
2023/05/21 01:01:55;;;;;;;0.40;0.40;;;;;;;17.22;100.00;99144.25;5051601;28;20200;-62
2023/05/21 01:04:24;;;;;;;0.40;0.40;;;;;;;17.15;100.00;99130.00;5049907;28;20201;-62
2023/05/21 01:06:52;;;;;;;0.60;0.60;;;;;;;17.16;100.00;99126.44;5051358;28;20200;-63
2023/05/21 01:09:19;;;;;;;0.40;0.40;;;;;;;17.23;100.00;99140.69;5051119;28;20200;-62
2023/05/21 01:11:48;;;;;;;0.40;0.40;;;;;;;16.94;100.00;99095.03;5051684;28;20231;-62
2023/05/21 01:14:17;;;;;;;0.50;0.50;;;;;;;17.13;100.00;99132.66;5051587;28;20221;-62
2023/05/21 01:16:48;;;;;;;0.50;0.50;;;;;;;17.19;100.00;99144.41;5050074;28;20208;-62
2023/05/21 01:19:17;;;;;;;0.50;0.50;;;;;;;17.10;100.00;99135.44;5051096;28;20204;-62
2023/05/21 01:21:55;;;;;;;0.53;0.53;;;;;;;17.17;100.00;99141.09;5050848;28;20211;-63
2023/05/21 01:24:23;;;;;;;0.60;0.60;;;;;;;17.19;100.00;99136.63;5051688;28;20863;-62
2023/05/21 01:26:50;;;;;;;0.40;0.40;;;;;;;17.19;100.00;99141.81;5051033;28;20283;-62
2023/05/21 01:29:16;;;;;;;0.40;0.40;;;;;;;17.19;100.00;99137.47;5050666;28;20592;-62
2023/05/21 01:31:54;;;;;;;0.50;0.50;;;;;;;17.21;100.00;99130.44;5050922;28;20197;-62
2023/05/21 01:34:25;;;;;;;0.43;0.43;;;;;;;17.26;100.00;99128.41;5050727;28;20252;-62
2023/05/21 01:37:01;;;;;;;0.40;0.40;;;;;;;17.26;100.00;99127.56;5050709;28;20639;-62
2023/05/21 01:39:33;;;;;;;0.40;0.40;;;;;;;17.15;100.00;99119.63;5049905;28;20283;-63
2023/05/21 01:42:03;;;;;;;0.40;0.40;;;;;;;17.15;100.00;99119.63;5050264;28;20207;-62
2023/05/21 01:44:31;;;;;;;0.50;0.50;;;;;;;17.07;100.00;99122.69;5049931;28;20208;-62
2023/05/21 01:46:59;;;;;;;0.40;0.40;;;;;;;17.04;100.00;99127.22;5048962;28;20207;-62
2023/05/21 01:49:26;;;;;;;0.70;0.70;;;;;;;17.08;100.00;99120.94;5050464;28;20201;-62
2023/05/21 01:51:53;;;;;;;0.93;0.93;;;;;;;17.02;100.00;99121.31;5050117;28;20201;-62
2023/05/21 01:54:20;;;;;;;0.40;0.40;;;;;;;17.02;100.00;99118.72;5050792;28;20200;-62
2023/05/21 01:56:49;;;;;;;0.50;0.50;;;;;;;16.94;100.00;99115.75;5050259;28;20287;-63
2023/05/21 01:59:17;;;;;;;0.50;0.50;;;;;;;16.93;100.00;99116.69;5050515;28;20682;-62
2023/05/21 02:01:44;;;;;;;0.43;0.43;;;;;;;16.95;100.00;99112.22;5050437;28;20207;-63
2023/05/21 02:04:10;;;;;;;0.40;0.40;;;;;;;16.94;100.00;99111.41;5050665;28;20581;-62
2023/05/21 02:06:38;;;;;;;0.40;0.40;;;;;;;17.05;100.00;99113.34;5050990;28;20612;-62
2023/05/21 02:09:05;;;;;;;0.50;0.50;;;;;;;17.07;100.00;99111.47;5050280;28;20205;-63
2023/05/21 02:11:32;;;;;;;0.50;0.50;;;;;;;17.15;100.00;99114.44;5050037;28;20537;-62
2023/05/21 02:14:00;;;;;;;0.60;0.60;;;;;;;17.13;100.00;99111.09;5049610;28;20619;-62
2023/05/21 02:16:26;;;;;;;0.60;0.60;;;;;;;17.08;100.00;99108.81;5049772;28;20227;-62
2023/05/21 02:18:56;;;;;;;0.50;0.50;;;;;;;17.02;100.00;99110.94;5049240;28;20255;-63
2023/05/21 02:21:23;;;;;;;0.50;0.50;;;;;;;16.97;100.00;99106.03;5049744;28;20672;-62
2023/05/21 02:23:49;;;;;;;0.43;0.43;;;;;;;17.00;100.00;99111.03;5049546;28;20193;-62
2023/05/21 02:26:16;;;;;;;0.50;0.50;;;;;;;17.02;100.00;99113.53;5045636;28;20605;-62
2023/05/21 02:28:44;;;;;;;0.40;0.40;;;;;;;17.01;100.00;99097.16;5048049;28;20669;-63
2023/05/21 02:31:12;;;;;;;0.60;0.60;;;;;;;17.11;100.00;99107.78;5049470;28;20240;-62
2023/05/21 02:33:40;;;;;;;0.57;0.57;;;;;;;17.08;100.00;99097.63;5050007;28;20232;-62
2023/05/21 02:36:11;;;;;;;0.50;0.50;;;;;;;17.11;100.00;99107.78;5049290;28;20677;-63
2023/05/21 02:38:39;;;;;;;0.70;0.70;;;;;;;17.12;100.00;99106.88;5046859;28;20247;-63
2023/05/21 02:41:06;;;;;;;0.50;0.50;;;;;;;17.17;100.00;99117.75;5048732;28;20227;-62
2023/05/21 02:43:33;;;;;;;0.50;0.50;;;;;;;17.20;100.00;99117.56;5050347;28;21299;-62
2023/05/21 02:46:00;;;;;;;0.40;0.40;;;;;;;17.22;100.00;99105.38;5049910;28;20205;-63
2023/05/21 02:48:28;;;;;;;0.50;0.50;;;;;;;17.21;100.00;99107.13;5049699;28;20668;-62
2023/05/21 02:50:54;;;;;;;0.50;0.50;;;;;;;17.12;100.00;99109.47;5049899;28;20639;-63
2023/05/21 02:53:21;;;;;;;0.60;0.60;;;;;;;17.08;100.00;99110.56;5049943;28;20288;-63
2023/05/21 02:55:48;;;;;;;0.50;0.50;;;;;;;17.07;100.00;99111.47;5053641;28;20220;-62
2023/05/21 02:58:15;;;;;;;0.40;0.40;;;;;;;17.10;100.00;99106.94;5050891;28;20204;-63
2023/05/21 03:00:42;;;;;;;0.50;0.50;;;;;;;17.02;100.00;99103.19;5054372;28;20209;-62
2023/05/21 03:03:10;;;;;;;0.40;0.40;;;;;;;16.97;100.00;99105.19;5053865;28;20204;-62
2023/05/21 03:05:38;;;;;;;0.50;0.50;;;;;;;16.94;100.00;99102.78;5053694;28;20665;-62
2023/05/21 03:08:05;;;;;;;0.60;0.60;;;;;;;16.84;100.00;99099.09;5053409;28;20200;-62
2023/05/21 03:10:32;;;;;;;0.40;0.40;;;;;;;16.76;100.00;99100.41;5051615;28;20208;-63
2023/05/21 03:12:59;;;;;;;0.60;0.60;;;;;;;16.72;100.00;99101.50;5053695;28;20208;-62
2023/05/21 03:15:32;;;;;;;0.43;0.43;;;;;;;16.71;100.00;99104.19;5053795;28;20208;-63
2023/05/21 03:17:59;;;;;;;0.60;0.60;;;;;;;16.71;100.00;99097.25;5053365;28;20208;-62
2023/05/21 03:20:26;;;;;;;0.50;0.50;;;;;;;16.71;100.00;99099.84;5052843;28;20201;-62
2023/05/21 03:22:55;;;;;;;0.47;0.47;;;;;;;16.71;100.00;99105.00;5053452;28;20258;-62
2023/05/21 03:25:24;;;;;;;0.67;0.67;;;;;;;16.72;100.00;99111.88;5053694;28;20586;-62
2023/05/21 03:27:51;;;;;;;0.67;0.67;;;;;;;16.77;100.00;99109.81;5052241;28;20231;-62
2023/05/21 03:30:18;;;;;;;0.70;0.70;;;;;;;16.74;100.00;99104.84;5053531;28;20232;-62
2023/05/21 03:32:45;;;;;;;1.20;1.20;;;;;;;16.82;100.00;99119.06;5053031;28;20283;-63
2023/05/21 03:35:12;;;;;;;0.40;0.40;;;;;;;16.65;100.00;99094.19;5053350;28;20220;-63
2023/05/21 03:37:38;;;;;;;0.50;0.50;;;;;;;16.51;100.00;99087.22;5053357;28;20208;-63
2023/05/21 03:40:08;;;;;;;0.50;0.50;;;;;;;16.26;100.00;99094.75;5052448;28;20193;-63
2023/05/21 03:42:35;;;;;;;0.60;0.60;;;;;;;16.22;100.00;99119.97;5052902;28;20585;-62
2023/05/21 03:45:01;;;;;;;0.60;0.60;;;;;;;16.04;100.00;99112.44;5053015;28;20203;-63
2023/05/21 03:47:28;;;;;;;0.50;0.50;;;;;;;16.15;100.00;99113.50;5052961;28;20270;-62
2023/05/21 03:49:55;;;;;;;0.43;0.43;;;;;;;16.23;100.00;99115.63;5052773;28;20202;-62
2023/05/21 03:52:22;;;;;;;0.53;0.53;;;;;;;16.35;100.00;99101.97;5052656;28;20208;-62
2023/05/21 03:54:49;;;;;;;0.43;0.43;;;;;;;16.34;100.00;99100.31;5052624;28;20200;-62
2023/05/21 03:57:17;;;;;;;0.40;0.40;;;;;;;16.35;100.00;99120.06;5051397;28;20204;-62
2023/05/21 03:59:44;;;;;;;0.40;0.40;;;;;;;16.23;100.00;99119.03;5052297;28;20611;-62
2023/05/21 04:02:10;;;;;;;0.60;0.60;;;;;;;16.31;100.00;99117.78;5052820;28;20209;-62
2023/05/21 04:04:37;;;;;;;0.50;0.50;;;;;;;16.42;100.00;99103.28;5052429;28;20262;-62
2023/05/21 04:07:04;;;;;;;0.40;0.40;;;;;;;16.42;100.00;99108.47;5051579;28;20211;-63
2023/05/21 04:09:31;;;;;;;0.40;0.40;;;;;;;16.48;100.00;99109.88;5052701;28;20209;-62
2023/05/21 04:11:58;;;;;;;0.50;0.50;;;;;;;16.57;100.00;99107.63;5052435;28;20212;-63
2023/05/21 04:14:26;;;;;;;0.50;0.50;;;;;;;16.61;100.00;99103.91;5051955;28;20209;-62
2023/05/21 04:16:53;;;;;;;0.50;0.50;;;;;;;16.70;100.00;99112.88;5052455;28;20769;-62
2023/05/21 04:19:19;;;;;;;0.43;0.43;;;;;;;16.79;100.00;99104.56;5052591;28;20581;-62
2023/05/21 04:21:46;;;;;;;0.53;0.53;;;;;;;16.79;100.00;99108.00;5051577;28;20204;-62
2023/05/21 04:24:13;;;;;;;0.40;0.40;;;;;;;16.87;100.00;99111.84;5052166;28;20767;-62
2023/05/21 04:26:41;;;;;;;0.50;0.50;;;;;;;16.91;100.00;99110.75;5051607;28;20201;-63
2023/05/21 04:29:08;;;;;;;0.50;0.50;;;;;;;16.97;100.00;99111.22;5051496;28;20596;-63
2023/05/21 04:31:37;;;;;;;0.50;0.50;;;;;;;17.04;100.00;99112.50;5052738;28;20291;-62
2023/05/21 04:34:05;;;;;;;0.60;0.60;;;;;;;17.08;100.00;99113.16;5052832;28;20204;-63
2023/05/21 04:36:32;;;;;;;0.60;0.60;;;;;;;17.08;100.00;99110.56;5052068;28;20226;-63
2023/05/21 04:38:59;;;;;;;0.50;0.50;;;;;;;17.10;100.00;99111.28;5051929;28;20227;-62
2023/05/21 04:41:27;;;;;;;0.40;0.40;;;;;;;17.12;100.00;99112.06;5049626;28;20212;-62
2023/05/21 04:43:54;;;;;;;0.60;0.60;;;;;;;17.11;100.00;99107.78;5048930;28;20296;-63
2023/05/21 04:46:23;;;;;;;0.63;0.63;;;;;;;17.13;100.00;99105.91;5051124;28;20729;-62
2023/05/21 04:48:53;;;;;;;0.43;0.43;;;;;;;17.15;100.00;99114.44;5050666;28;20232;-63
2023/05/21 04:51:21;;;;;;;0.60;0.60;;;;;;;17.17;100.00;99110.00;5051788;28;20298;-63
2023/05/21 04:53:48;;;;;;;0.50;0.50;;;;;;;17.18;100.00;99115.09;5051811;28;20208;-62
2023/05/21 04:56:17;;;;;;;0.40;0.40;;;;;;;17.22;100.00;99115.75;5050389;28;20700;-62
2023/05/21 04:58:43;;;;;;;0.40;0.40;;;;;;;17.26;100.00;99114.59;5051665;28;20300;-62
2023/05/21 05:01:11;;;;;;;0.63;0.63;;;;;;;17.28;100.00;99120.53;5051434;28;20665;-62
2023/05/21 05:03:38;;;;;;;0.50;0.50;;;;;;;17.30;100.00;99116.09;5049889;28;20201;-63
2023/05/21 05:06:07;;;;;;;0.60;0.60;;;;;;;17.31;100.00;99115.16;5051491;28;20204;-62
2023/05/21 05:08:35;;;;;;;0.50;0.50;;;;;;;17.33;100.00;99113.31;5049033;28;21414;-62
2023/05/21 05:11:02;;;;;;;0.30;0.30;;;;;;;17.38;100.00;99110.44;5051342;28;20235;-62
2023/05/21 05:13:29;;;;;;;0.50;0.50;;;;;;;17.41;100.00;99116.25;5049977;28;20200;-63
2023/05/21 05:15:56;;;;;;;0.50;0.50;;;;;;;17.46;100.00;99118.56;5050965;28;20217;-62
2023/05/21 05:18:23;;;;;;;0.50;0.50;;;;;;;17.47;100.00;99120.22;5052286;28;20619;-62
2023/05/21 05:20:49;;;;;;;0.40;0.40;;;;;;;17.50;100.00;99115.69;5051284;28;20298;-62
2023/05/21 05:23:17;;;;;;;0.43;0.43;;;;;;;17.56;100.00;99123.09;5050122;28;20665;-63
2023/05/21 05:25:45;;;;;;;0.50;0.50;;;;;;;17.61;100.00;99131.41;5050796;28;20212;-63
2023/05/21 05:28:11;;;;;;;0.47;0.47;;;;;;;17.66;100.00;99126.78;5047471;28;20724;-63
2023/05/21 05:30:38;;;;;;;0.60;0.60;;;;;;;17.67;100.00;99128.41;5051033;28;20197;-62
2023/05/21 05:33:05;;;;;;;0.60;0.60;;;;;;;17.57;100.00;99124.78;5050531;28;20646;-62
2023/05/21 05:35:32;;;;;;;0.60;0.60;;;;;;;17.67;100.00;99143.97;5050103;28;20225;-62
2023/05/21 05:37:58;;;;;;;0.40;0.40;;;;;;;17.67;100.00;99153.53;5048223;28;20197;-63
2023/05/21 05:40:27;;;;;;;0.60;0.60;;;;;;;17.42;100.00;99115.31;5049798;28;20216;-62
2023/05/21 05:42:53;;;;;;;0.50;0.50;;;;;;;17.66;100.00;99133.72;5050588;28;20208;-63
2023/05/21 05:45:20;;;;;;;0.60;0.60;;;;;;;17.66;100.00;99173.44;5047332;28;20205;-63
2023/05/21 05:47:47;;;;;;;0.40;0.40;;;;;;;17.51;100.00;99158.78;5050674;28;20209;-62
2023/05/21 05:50:14;;;;;;;0.67;0.67;;;;;;;17.63;100.00;99150.31;5048986;28;20263;-62
2023/05/21 05:52:41;;;;;;;0.50;0.50;;;;;;;17.64;100.00;99144.16;5050522;28;20202;-62
2023/05/21 05:55:08;;;;;;;0.70;0.70;;;;;;;17.64;100.00;99131.22;5050289;28;20241;-62
2023/05/21 05:57:37;;;;;;;0.40;0.40;;;;;;;17.75;100.00;99140.91;5049717;28;20250;-62
2023/05/21 06:00:04;;;;;;;0.50;0.50;;;;;;;17.79;100.00;99132.84;5052396;28;20212;-63
2023/05/21 06:02:31;;;;;;;0.70;0.70;;;;;;;17.79;100.00;99138.03;5051323;28;20204;-63
2023/05/21 06:04:58;;;;;;;0.43;0.43;;;;;;;17.76;100.00;99140.84;5053291;28;20202;-63
2023/05/21 06:07:25;;;;;;;0.50;0.50;;;;;;;17.83;100.00;99149.84;5050449;28;20556;-63
2023/05/21 06:09:51;;;;;;;0.43;0.43;;;;;;;17.91;100.00;99151.13;5047317;28;20576;-63
2023/05/21 06:12:18;;;;;;;0.50;0.50;;;;;;;17.98;100.00;99148.06;5050421;28;20202;-63
2023/05/21 06:14:49;;;;;;;0.47;0.47;;;;;;;18.09;100.00;99142.19;5050293;28;20212;-62
2023/05/21 06:17:16;;;;;;;0.73;0.73;;;;;;;18.11;100.00;99137.72;5049615;28;20588;-62
2023/05/21 06:19:44;;;;;;;0.90;0.90;;;;;;;18.15;100.00;99137.44;5051954;28;20209;-62
2023/05/21 06:22:10;;;;;;;0.70;0.70;;;;;;;18.26;100.00;99141.91;5050264;28;20213;-63
2023/05/21 06:24:37;;;;;;;0.50;0.50;;;;;;;18.28;100.00;99150.44;5050986;28;20209;-62
2023/05/21 06:27:04;;;;;;;0.40;0.40;;;;;;;18.26;100.00;99136.72;5049482;28;20227;-63
2023/05/21 06:29:31;;;;;;;0.57;0.57;;;;;;;18.26;100.00;99136.72;5049049;28;20254;-63
2023/05/21 06:32:00;;;;;;;0.37;0.37;;;;;;;18.29;100.00;99126.13;5049770;28;20208;-62
2023/05/21 06:34:27;;;;;;;1.13;1.03;;;;;;;18.31;100.00;99126.88;5049580;28;20669;-62
2023/05/21 06:36:54;;;;;;;0.60;0.60;;;;;;;18.36;100.00;99130.00;5047839;28;20300;-62
2023/05/21 06:39:21;;;;;;;0.60;0.60;;;;;;;18.44;100.00;99130.31;5049740;28;20341;-62
2023/05/21 06:41:48;;;;;;;0.53;0.53;;;;;;;18.50;100.00;99135.13;5047859;28;20201;-63
2023/05/21 06:44:15;;;;;;;0.50;0.50;;;;;;;18.55;100.00;99132.22;5047201;28;20213;-63
2023/05/21 06:46:42;;;;;;;0.47;0.47;;;;;;;18.64;100.00;99127.25;5048549;28;20231;-63
2023/05/21 06:49:12;;;;;;;0.40;0.40;;;;;;;18.75;100.00;99124.75;5051546;28;20205;-62
2023/05/21 06:51:39;;;;;;;0.40;0.40;;;;;;;18.80;100.00;99130.47;5049599;28;20298;-62
2023/05/21 06:54:06;;;;;;;0.40;0.40;;;;;;;18.86;100.00;99129.25;5051610;28;20219;-62
2023/05/21 06:56:32;;;;;;;0.80;0.80;;;;;;;18.97;100.00;99128.47;5053241;28;20270;-63
2023/05/21 06:58:59;;;;;;;0.40;0.40;;;;;;;19.04;100.00;99134.91;5049074;28;20258;-63
2023/05/21 07:01:26;;;;;;;0.37;0.37;;;;;;;19.05;100.00;99131.41;5051814;28;20260;-62
2023/05/21 07:03:53;;;;;;;0.60;0.60;;;;;;;19.10;100.00;99139.69;5049634;28;20207;-62
2023/05/21 07:06:21;;;;;;;0.40;0.40;;;;;;;19.13;100.00;99137.72;5049259;28;20671;-63
2023/05/21 07:08:48;;;;;;;0.70;0.70;;;;;;;19.20;100.00;99151.13;5047072;28;20206;-62
2023/05/21 07:11:15;;;;;;;0.73;0.73;;;;;;;19.25;100.00;99144.69;5048004;28;20303;-63
2023/05/21 07:13:42;;;;;;;0.70;0.70;;;;;;;19.35;100.00;99139.69;5049340;28;20310;-63
2023/05/21 07:16:09;;;;;;;0.50;0.50;;;;;;;19.38;100.00;99147.25;5046643;28;20219;-66
2023/05/21 07:18:36;;;;;;;0.43;0.43;;;;;;;19.34;100.00;99151.84;5048727;28;20215;-62
2023/05/21 07:21:03;;;;;;;0.50;0.50;;;;;;;19.29;100.00;99147.88;5047528;28;20207;-61
2023/05/21 07:23:31;;;;;;;0.60;0.60;;;;;;;19.26;100.00;99145.50;5049064;28;20558;-62
2023/05/21 07:25:58;;;;;;;0.50;0.50;;;;;;;19.20;100.00;99140.72;5048900;28;20217;-61
2023/05/21 07:28:25;;;;;;;0.90;0.90;;;;;;;19.21;100.00;99139.78;5046683;28;20763;-62
2023/05/21 07:30:51;;;;;;;1.13;1.13;;;;;;;19.28;100.00;99143.63;5043763;28;20213;-62
2023/05/21 07:33:19;;;;;;;0.60;0.60;;;;;;;19.33;100.00;99146.72;5047971;28;20209;-62
2023/05/21 07:35:46;;;;;;;0.50;0.50;;;;;;;19.31;100.00;99139.06;5049819;28;20203;-61
2023/05/21 07:38:13;;;;;;;0.50;0.50;;;;;;;19.21;100.00;99132.00;5051225;28;20226;-61
2023/05/21 07:40:41;;;;;;;0.77;0.77;;;;;;;19.34;100.00;99145.81;5046051;28;20684;-61
2023/05/21 07:43:07;;;;;;;0.53;0.53;;;;;;;19.40;100.00;99148.00;5052594;28;20219;-62
2023/05/21 07:45:34;;;;;;;0.47;0.47;;;;;;;19.53;100.00;99151.41;5053118;28;20206;-62
2023/05/21 07:48:01;;;;;;;0.47;0.47;;;;;;;19.64;100.00;99153.25;5052638;28;20201;-62
2023/05/21 07:50:28;;;;;;;0.43;0.43;;;;;;;19.80;100.00;99159.00;5052074;28;20203;-62
2023/05/21 07:52:54;;;;;;;0.40;0.40;;;;;;;19.81;100.00;99156.28;5049523;28;20203;-62
2023/05/21 07:55:21;;;;;;;0.73;0.73;;;;;;;19.85;100.00;99160.34;5051443;28;20215;-62
2023/05/21 07:57:51;;;;;;;0.50;0.50;;;;;;;19.95;100.00;99159.69;5048838;28;20223;-62
2023/05/21 08:00:18;;;;;;;0.50;0.50;;;;;;;20.04;99.69;99164.22;5051991;28;20299;-63
2023/05/21 08:02:45;;;;;;;0.90;0.90;;;;;;;20.12;98.16;99164.50;5051460;28;20667;-62
2023/05/21 08:05:11;;;;;;;0.60;0.60;;;;;;;20.17;98.46;99159.78;5054168;28;20208;-61
2023/05/21 08:07:38;;;;;;;0.57;0.57;;;;;;;20.31;95.71;99170.03;5051097;28;20223;-62
2023/05/21 08:10:06;;;;;;;0.80;0.80;;;;;;;20.40;95.67;99161.56;5054269;28;20223;-62
2023/05/21 08:12:33;;;;;;;0.47;0.47;;;;;;;20.43;96.14;99148.31;5051825;28;20203;-62
2023/05/21 08:15:01;;;;;;;0.60;0.60;;;;;;;20.57;93.31;99160.31;5052650;28;20762;-62
2023/05/21 08:17:28;;;;;;;1.00;0.87;;;;;;;20.68;93.09;99162.94;5051820;28;20273;-62
2023/05/21 08:19:55;;;;;;;0.57;0.57;;;;;;;20.77;90.40;99170.91;5050997;28;20644;-61
2023/05/21 08:22:22;;;;;;;0.50;0.50;;;;;;;20.91;90.75;99159.41;5046477;28;20292;-62
2023/05/21 08:24:49;;;;;;;0.60;0.60;;;;;;;21.00;90.21;99163.09;5051506;28;20604;-63
2023/05/21 08:27:16;;;;;;;0.40;0.40;;;;;;;21.10;88.26;99169.31;5051093;28;20227;-62
2023/05/21 08:29:43;;;;;;;0.50;0.50;;;;;;;21.28;89.28;99167.88;5053642;28;20212;-62
2023/05/21 08:32:11;;;;;;;0.50;0.50;;;;;;;21.52;86.99;99168.56;5051994;28;20676;-62
2023/05/21 08:34:38;;;;;;;0.40;0.40;;;;;;;21.82;83.70;99155.69;5051898;28;20217;-62
2023/05/21 08:37:05;;;;;;;0.50;0.50;;;;;;;22.02;85.71;99161.13;5052000;28;20239;-62
2023/05/21 08:39:31;;;;;;;0.40;0.40;;;;;;;22.19;85.23;99165.81;5052186;28;20204;-62
2023/05/21 08:42:09;;;;;;;0.30;0.30;;;;;;;22.34;80.78;99172.38;5051916;28;20216;-62
2023/05/21 08:44:43;;;;;;;0.53;0.53;;;;;;;22.45;82.08;99167.13;5051878;28;20207;-63
2023/05/21 08:47:16;;;;;;;0.47;0.47;;;;;;;22.57;79.14;99171.31;5045824;28;20683;-63
2023/05/21 08:49:44;;;;;;;0.87;0.87;;;;;;;22.55;77.60;99168.03;5051560;28;20288;-62
2023/05/21 08:52:12;;;;;;;0.43;0.43;;;;;;;22.57;79.87;99168.72;5050855;28;20295;-63
2023/05/21 08:54:39;;;;;;;0.80;0.80;;;;;;;22.46;77.20;99159.16;5050911;28;20201;-63
2023/05/21 08:57:07;;;;;;;0.40;0.40;;;;;;;22.47;72.89;99173.03;5052201;28;20307;-63
2023/05/21 08:59:35;;;;;;;0.50;0.50;;;;;;;22.46;74.36;99160.94;5046415;28;20200;-63
2023/05/21 09:02:04;;;;;;;0.30;0.30;;;;;;;22.48;72.06;99169.47;5050827;28;20292;-63
2023/05/21 09:04:33;;;;;;;0.40;0.40;;;;;;;22.54;73.35;99163.75;5051305;28;20208;-62
2023/05/21 09:07:01;;;;;;;0.47;0.47;;;;;;;22.47;74.95;99147.75;5048931;28;20193;-62
2023/05/21 09:09:33;;;;;;;0.30;0.30;;;;;;;22.52;75.54;99147.34;5050730;28;20204;-62
2023/05/21 09:12:00;;;;;;;0.50;0.50;;;;;;;22.56;73.18;99158.38;5051138;28;20204;-62
2023/05/21 09:14:27;;;;;;;0.40;0.40;;;;;;;22.71;75.09;99157.97;5046535;28;20211;-62
2023/05/21 09:16:54;;;;;;;0.57;0.57;;;;;;;22.73;71.70;99158.69;5047678;28;20659;-62
2023/05/21 09:19:21;;;;;;;0.30;0.30;;;;;;;22.61;73.56;99138.78;5049141;28;20279;-62
2023/05/21 09:21:51;;;;;;;4.90;1.43;;;;;;;22.76;71.31;99158.41;5049079;28;20208;-62
2023/05/21 09:24:21;;;;;;;0.60;0.60;;;;;;;22.92;72.73;99169.25;5046128;28;20197;-62
2023/05/21 09:26:48;;;;;;;0.30;0.30;;;;;;;22.97;66.43;99167.03;5049579;28;20235;-62
2023/05/21 09:29:15;;;;;;;0.67;0.67;;;;;;;23.04;68.31;99179.63;5047412;28;20208;-62
2023/05/21 09:31:44;;;;;;;0.53;0.53;;;;;;;22.95;69.24;99163.75;5049928;28;20616;-62
2023/05/21 09:34:12;;;;;;;0.47;0.47;;;;;;;22.86;72.86;99153.25;5050869;28;20201;-62
2023/05/21 09:36:39;;;;;;;0.30;0.30;;;;;;;22.77;70.63;99160.09;5047791;28;20197;-62
2023/05/21 09:39:10;;;;;;;0.40;0.40;;;;;;;22.54;70.50;99145.47;5049118;28;20283;-62
2023/05/21 09:41:36;;;;;;;0.30;0.30;;;;;;;22.49;72.68;99158.88;5048525;28;20300;-63
2023/05/21 09:44:04;;;;;;;0.77;0.77;;;;;;;22.47;71.81;99167.81;5049438;28;20237;-63
2023/05/21 09:46:38;;;;;;;0.30;0.30;;;;;;;22.28;72.92;99167.66;5049219;28;20204;-62
2023/05/21 09:49:04;;;;;;;0.30;0.30;;;;;;;22.23;74.21;99162.81;5045565;28;20274;-63
2023/05/21 09:51:31;;;;;;;0.37;0.37;;;;;;;22.23;76.09;99159.41;5048825;28;20201;-62
2023/05/21 09:53:58;;;;;;;0.50;0.50;;;;;;;22.07;75.03;99161.59;5048585;28;20295;-62
2023/05/21 09:56:28;;;;;;;0.40;0.40;;;;;;;22.12;77.47;99154.22;5049562;28;20255;-62
2023/05/21 09:58:56;;;;;;;0.60;0.60;;;;;;;22.14;76.86;99155.72;5049609;28;20282;-63
2023/05/21 10:01:24;;;;;;;0.30;0.30;;;;;;;22.16;74.86;99153.84;5049588;28;20443;-62
2023/05/21 10:03:55;;;;;;;0.30;0.30;;;;;;;22.25;72.36;99166.16;5046613;28;20450;-64
2023/05/21 10:06:24;;;;;;;0.40;0.40;;;;;;;22.29;71.40;99169.34;5049956;28;20232;-64
2023/05/21 10:08:54;;;;;;;0.37;0.37;;;;;;;22.40;71.89;99171.88;5050417;28;20284;-64
2023/05/21 10:11:23;;;;;;;0.50;0.50;;;;;;;22.53;71.77;99167.31;5050241;28;20200;-64
2023/05/21 10:13:57;;;;;;;0.53;0.53;;;;;;;22.69;72.69;99170.34;5048024;28;20193;-64
2023/05/21 10:16:24;;;;;;;0.47;0.47;;;;;;;22.72;69.51;99179.69;5050113;28;20204;-64
2023/05/21 10:18:54;;;;;;;0.40;0.40;;;;;;;22.69;70.32;99183.41;5050060;28;20310;-65
2023/05/21 10:21:22;;;;;;;0.33;0.33;;;;;;;22.52;71.05;99170.88;5050313;28;20232;-65
2023/05/21 10:23:50;;;;;;;0.50;0.50;;;;;;;22.46;74.18;99184.44;5049374;28;20284;-64
2023/05/21 10:26:18;;;;;;;0.40;0.40;;;;;;;22.24;80.10;99155.81;5050085;28;20743;-64
2023/05/21 10:28:45;;;;;;;0.40;0.40;;;;;;;22.15;82.41;99156.56;5049578;28;20585;-64
2023/05/21 10:31:14;;;;;;;0.40;0.40;;;;;;;21.99;82.65;99151.75;5049380;28;20211;-63
2023/05/21 10:33:42;;;;;;;0.33;0.33;;;;;;;21.96;82.26;99160.69;5050194;28;20198;-64
2023/05/21 10:36:09;;;;;;;0.40;0.40;;;;;;;21.96;85.38;99152.84;5049904;28;20270;-64
2023/05/21 10:38:37;;;;;;;0.40;0.40;;;;;;;22.00;79.42;99158.66;5050060;28;20224;-64
2023/05/21 10:41:05;;;;;;;0.50;0.50;;;;;;;21.97;75.56;99143.25;5049582;28;20266;-63
2023/05/21 10:43:45;;;;;;;0.40;0.40;;;;;;;22.29;75.03;99164.94;5050147;28;20204;-64
2023/05/21 10:46:49;;;;;;;0.40;0.40;;;;;;;22.39;70.20;99165.81;5049876;28;20208;-64
2023/05/21 10:49:40;;;;;;;0.50;0.50;;;;;;;22.50;70.50;99157.09;5050244;28;20258;-65
2023/05/21 10:52:18;;;;;;;0.53;0.53;;;;;;;22.82;73.73;99162.28;5053468;28;20212;-64
2023/05/21 10:54:59;;;;;;;0.30;0.30;;;;;;;22.86;71.79;99151.47;5050259;28;20207;-65
2023/05/21 10:57:58;;;;;;;0.50;0.50;;;;;;;22.98;69.78;99178.34;5050046;28;20224;-64
2023/05/21 11:00:27;;;;;;;0.50;0.50;;;;;;;22.95;66.56;99178.59;5049547;28;20196;-65
2023/05/21 11:02:58;;;;;;;0.30;0.30;;;;;;;22.99;67.07;99159.94;5049606;28;20200;-65
2023/05/21 11:05:41;;;;;;;0.47;0.47;;;;;;;23.14;69.11;99159.56;5049890;28;20200;-65
2023/05/21 11:08:25;;;;;;;0.40;0.40;;;;;;;23.14;65.31;99162.16;5049897;28;20287;-64
2023/05/21 11:10:53;;;;;;;0.30;0.30;;;;;;;23.05;66.16;99152.50;5050175;28;20205;-65
2023/05/21 11:13:20;;;;;;;0.50;0.50;;;;;;;23.10;64.16;99160.81;5049220;28;20296;-65
2023/05/21 11:16:07;;;;;;;0.50;0.50;;;;;;;23.00;68.47;99140.63;5050613;28;20730;-65
2023/05/21 11:19:03;;;;;;;0.30;0.30;;;;;;;23.25;69.10;99149.84;5053634;28;20270;-66
2023/05/21 11:21:31;;;;;;;0.47;0.47;;;;;;;23.27;66.84;99147.09;5053680;28;20209;-65
2023/05/21 11:24:02;;;;;;;0.33;0.33;;;;;;;23.19;66.91;99128.63;5054044;28;20204;-65
2023/05/21 11:26:50;;;;;;;0.30;0.30;;;;;;;23.26;66.76;99155.91;5058948;28;20283;-65
2023/05/21 11:29:18;;;;;;;0.30;0.30;;;;;;;23.10;69.59;99132.03;5053630;28;20235;-65
2023/05/21 11:31:46;;;;;;;0.60;0.60;;;;;;;22.84;69.40;99126.41;5053515;28;20204;-64